Time;durP1;ratioP1;P1;durP2;ratioP2;P2;SDS_P1;SDS_P2;PMS_P1;PMS_P2;Temp;Humidity;BMP_temperature;BMP_pressure;BME280_temperature;BME280_humidity;BME280_pressure;Samples;Min_cycle;Max_cycle;Signal;HPM_P1;HPM_P2
2024/02/22 00:00:07;;;;;;;5.70;3.17;;;;;;;8.04;100.00;99963.69;7775232;22;20278;-68
2024/02/22 00:03:39;;;;;;;5.30;3.47;;;;;;;7.99;100.00;99960.59;7753212;22;20225;-69
2024/02/22 00:07:02;;;;;;;3.77;3.43;;;;;;;7.91;100.00;99940.81;7773090;22;20635;-69
2024/02/22 00:10:28;;;;;;;5.90;3.97;;;;;;;7.96;100.00;99939.41;7774484;22;20210;-69
2024/02/22 00:13:52;;;;;;;6.43;5.27;;;;;;;8.02;100.00;99935.31;7777548;22;20210;-69
2024/02/22 00:17:13;;;;;;;4.07;3.67;;;;;;;7.93;100.00;99928.09;7770848;22;20214;-69
2024/02/22 00:20:34;;;;;;;3.93;3.10;;;;;;;7.95;100.00;99936.84;7768793;22;20652;-68
2024/02/22 00:23:55;;;;;;;4.30;3.10;;;;;;;7.94;100.00;99930.66;7753956;22;20210;-70
2024/02/22 00:27:16;;;;;;;5.83;4.13;;;;;;;7.89;100.00;99913.28;7773636;22;20214;-69
2024/02/22 00:30:41;;;;;;;5.03;3.97;;;;;;;7.97;100.00;99922.31;7760231;22;20222;-69
2024/02/22 00:34:02;;;;;;;5.93;2.90;;;;;;;7.86;100.00;99911.72;7775363;22;20214;-69
2024/02/22 00:37:22;;;;;;;6.40;3.90;;;;;;;7.87;100.00;99902.69;7772016;22;20293;-68
2024/02/22 00:40:45;;;;;;;6.00;4.10;;;;;;;7.91;100.00;99901.41;7774399;22;20218;-70
2024/02/22 00:44:07;;;;;;;9.40;4.83;;;;;;;8.06;100.00;99896.44;7780393;22;20210;-69
2024/02/22 00:47:29;;;;;;;5.57;4.73;;;;;;;7.96;100.00;99883.06;7752303;22;20210;-70
2024/02/22 00:50:50;;;;;;;5.03;4.53;;;;;;;8.00;100.00;99873.72;7772959;22;20210;-69
2024/02/22 00:54:13;;;;;;;4.63;3.33;;;;;;;8.00;100.00;99860.31;7776070;22;20442;-70
2024/02/22 00:57:34;;;;;;;3.17;2.80;;;;;;;7.98;100.00;99853.41;7772918;22;20596;-70
2024/02/22 01:00:55;;;;;;;5.53;3.63;;;;;;;7.96;100.00;99858.06;7773829;22;20231;-69
2024/02/22 01:04:16;;;;;;;9.50;3.63;;;;;;;7.97;100.00;99846.31;7736875;22;20221;-69
2024/02/22 01:07:37;;;;;;;5.37;3.60;;;;;;;7.92;100.00;99840.56;7772142;22;20225;-69
2024/02/22 01:11:00;;;;;;;5.50;3.23;;;;;;;7.93;100.00;99829.69;7774114;22;20214;-69
2024/02/22 01:14:21;;;;;;;6.20;4.20;;;;;;;7.89;100.00;99824.72;7778451;22;20214;-70
2024/02/22 01:17:42;;;;;;;4.17;2.87;;;;;;;7.88;100.00;99807.81;7770719;22;20218;-70
2024/02/22 01:21:06;;;;;;;7.17;3.30;;;;;;;7.96;100.00;99805.25;7747060;22;20214;-70
2024/02/22 01:24:27;;;;;;;6.57;3.33;;;;;;;7.88;100.00;99793.53;7775156;22;20210;-69
2024/02/22 01:27:48;;;;;;;3.23;2.93;;;;;;;7.93;100.00;99786.75;7773543;22;20222;-70
2024/02/22 01:31:09;;;;;;;3.97;3.30;;;;;;;7.96;100.00;99788.28;7772340;22;20796;-69
2024/02/22 01:34:30;;;;;;;4.53;3.67;;;;;;;7.94;100.00;99774.19;7778850;22;20230;-69
2024/02/22 01:37:52;;;;;;;3.83;2.83;;;;;;;7.87;100.00;99770.38;7771220;22;20218;-69
2024/02/22 01:41:13;;;;;;;4.00;2.80;;;;;;;7.91;100.00;99769.94;7763162;22;20447;-70
2024/02/22 01:44:34;;;;;;;5.97;4.13;;;;;;;7.88;100.00;99758.66;7780247;22;20218;-69
2024/02/22 01:47:55;;;;;;;3.27;2.97;;;;;;;7.94;100.00;99752.72;7771284;22;20218;-69
2024/02/22 01:51:19;;;;;;;4.03;2.73;;;;;;;7.89;100.00;99746.94;7772713;22;20293;-70
2024/02/22 01:54:41;;;;;;;4.63;4.23;;;;;;;7.91;100.00;99734.22;7780138;22;20214;-69
2024/02/22 01:58:04;;;;;;;3.43;2.77;;;;;;;7.99;100.00;99723.56;7731707;22;20218;-69
2024/02/22 02:01:25;;;;;;;5.57;3.37;;;;;;;7.95;100.00;99717.66;7775078;22;20214;-70
2024/02/22 02:04:46;;;;;;;3.07;2.77;;;;;;;7.97;100.00;99720.19;7778153;22;20214;-69
2024/02/22 02:08:07;;;;;;;2.87;2.67;;;;;;;7.92;100.00;99709.94;7772877;22;20741;-69
2024/02/22 02:11:29;;;;;;;3.13;2.77;;;;;;;7.95;100.00;99698.88;7749539;22;20553;-70
2024/02/22 02:14:51;;;;;;;3.67;2.90;;;;;;;8.08;100.00;99694.03;7757646;22;20398;-69
2024/02/22 02:18:11;;;;;;;3.03;2.73;;;;;;;8.07;100.00;99694.19;7773625;22;20211;-69
2024/02/22 02:21:40;;;;;;;3.73;3.03;;;;;;;8.05;100.00;99682.75;7773814;22;20226;-69
2024/02/22 02:25:03;;;;;;;3.60;3.30;;;;;;;8.12;100.00;99683.81;7778264;22;20218;-69
2024/02/22 02:28:24;;;;;;;4.87;3.37;;;;;;;7.98;100.00;99674.47;7777484;22;20215;-69
2024/02/22 02:31:45;;;;;;;3.43;2.77;;;;;;;7.95;100.00;99669.38;7768120;22;20214;-69
2024/02/22 02:35:07;;;;;;;4.63;3.37;;;;;;;8.00;100.00;99664.41;7760457;22;20814;-69
2024/02/22 02:38:27;;;;;;;3.10;2.87;;;;;;;8.04;100.00;99659.59;7776415;22;20560;-70
2024/02/22 02:41:51;;;;;;;4.07;3.23;;;;;;;8.09;100.00;99655.44;7769120;22;20210;-70
2024/02/22 02:45:11;;;;;;;3.20;2.90;;;;;;;7.97;100.00;99637.88;7775683;22;20553;-70
2024/02/22 02:48:32;;;;;;;4.30;3.03;;;;;;;8.08;100.00;99639.50;7775771;22;20537;-70
2024/02/22 02:51:54;;;;;;;4.17;2.57;;;;;;;8.05;100.00;99637.94;7770072;22;20412;-70
2024/02/22 02:55:15;;;;;;;5.07;3.60;;;;;;;7.95;100.00;99621.06;7774472;22;20241;-70
2024/02/22 02:58:37;;;;;;;3.13;2.93;;;;;;;8.08;100.00;99623.41;7778657;22;20260;-69
2024/02/22 03:01:58;;;;;;;3.23;2.93;;;;;;;8.08;100.00;99609.97;7771242;22;20294;-69
2024/02/22 03:05:18;;;;;;;5.53;3.17;;;;;;;8.01;100.00;99607.06;7774697;22;20210;-69
2024/02/22 03:08:39;;;;;;;3.53;3.23;;;;;;;7.94;100.00;99599.75;7775035;22;20226;-69
2024/02/22 03:12:00;;;;;;;4.60;3.40;;;;;;;8.02;100.00;99599.84;7772192;22;20211;-70
2024/02/22 03:15:22;;;;;;;3.17;2.60;;;;;;;8.02;100.00;99589.13;7774612;22;20211;-69
2024/02/22 03:18:43;;;;;;;3.67;3.33;;;;;;;8.00;100.00;99593.78;7772342;22;20961;-69
2024/02/22 03:22:04;;;;;;;2.80;2.60;;;;;;;7.95;100.00;99580.81;7774165;22;20214;-70
2024/02/22 03:25:27;;;;;;;3.17;2.83;;;;;;;7.98;100.00;99577.00;7774555;22;20474;-70
2024/02/22 03:28:48;;;;;;;2.87;2.57;;;;;;;7.95;100.00;99578.13;7778422;22;20215;-69
2024/02/22 03:32:10;;;;;;;3.37;2.90;;;;;;;7.97;100.00;99564.56;7771484;22;20207;-69
2024/02/22 03:35:31;;;;;;;3.60;3.17;;;;;;;8.05;100.00;99562.81;7773587;22;20582;-69
2024/02/22 03:38:53;;;;;;;3.10;2.90;;;;;;;7.94;100.00;99557.69;7777354;22;20226;-69
2024/02/22 03:42:14;;;;;;;2.73;2.53;;;;;;;7.97;100.00;99552.00;7748658;22;20229;-69
2024/02/22 03:45:34;;;;;;;4.40;3.63;;;;;;;7.92;100.00;99543.59;7771550;22;20210;-68
2024/02/22 03:48:57;;;;;;;3.57;2.77;;;;;;;8.04;100.00;99539.66;7774003;22;20214;-70
2024/02/22 03:52:18;;;;;;;3.00;2.80;;;;;;;8.04;100.00;99534.31;7771492;22;20245;-69
2024/02/22 03:55:38;;;;;;;3.00;2.80;;;;;;;8.11;100.00;99533.69;7774199;22;20211;-69
2024/02/22 03:58:59;;;;;;;2.70;2.50;;;;;;;8.01;100.00;99525.69;7779778;22;20202;-69
2024/02/22 04:02:21;;;;;;;3.20;2.53;;;;;;;8.01;100.00;99528.38;7768757;22;20219;-70
2024/02/22 04:05:45;;;;;;;2.90;2.70;;;;;;;8.00;100.00;99524.88;7770875;22;20214;-69
2024/02/22 04:09:06;;;;;;;3.70;3.40;;;;;;;8.08;100.00;99524.94;7775885;22;20229;-69
2024/02/22 04:12:28;;;;;;;3.23;3.00;;;;;;;8.07;100.00;99506.31;7773355;22;20274;-69
2024/02/22 04:15:49;;;;;;;3.43;2.33;;;;;;;8.13;100.00;99507.53;7770071;22;20206;-69
2024/02/22 04:19:10;;;;;;;3.37;3.07;;;;;;;8.14;100.00;99495.78;7777329;22;20210;-70
2024/02/22 04:22:44;;;;;;;2.27;2.10;;;;;;;8.21;100.00;99497.72;7771539;22;20210;-68
2024/02/22 04:26:07;;;;;;;4.40;2.87;;;;;;;8.16;100.00;99488.41;7773800;22;20600;-69
2024/02/22 04:29:27;;;;;;;2.70;2.50;;;;;;;8.27;100.00;99489.06;7780237;22;20210;-70
2024/02/22 04:32:48;;;;;;;2.67;2.47;;;;;;;8.24;100.00;99485.84;7771593;22;20510;-70
2024/02/22 04:36:09;;;;;;;2.87;2.07;;;;;;;8.34;100.00;99478.56;7773526;22;20506;-69
2024/02/22 04:39:31;;;;;;;2.80;2.60;;;;;;;8.25;100.00;99468.72;7779243;22;20206;-69
2024/02/22 04:42:53;;;;;;;3.10;2.83;;;;;;;8.27;100.00;99472.13;7770533;22;20210;-70
2024/02/22 04:46:14;;;;;;;3.07;2.87;;;;;;;8.22;100.00;99477.91;7771156;22;20277;-70
2024/02/22 04:49:35;;;;;;;2.93;2.43;;;;;;;8.22;100.00;99471.72;7778435;22;20585;-70
2024/02/22 04:52:56;;;;;;;2.40;2.20;;;;;;;8.22;100.00;99461.00;7771921;22;20210;-70
2024/02/22 04:56:18;;;;;;;2.70;2.40;;;;;;;8.14;100.00;99471.63;7773376;22;20598;-69
2024/02/22 04:59:39;;;;;;;2.77;2.20;;;;;;;8.17;100.00;99465.97;7778005;22;20214;-69
2024/02/22 05:03:00;;;;;;;4.10;2.43;;;;;;;8.15;100.00;99465.28;7769992;22;20211;-69
2024/02/22 05:06:21;;;;;;;2.17;2.07;;;;;;;8.11;100.00;99456.72;7771247;22;20210;-69
2024/02/22 05:09:42;;;;;;;3.77;2.67;;;;;;;8.16;100.00;99445.47;7755623;22;20226;-68
2024/02/22 05:13:04;;;;;;;2.47;2.23;;;;;;;8.19;100.00;99451.41;7774887;22;20214;-70
2024/02/22 05:16:25;;;;;;;2.67;2.37;;;;;;;8.22;100.00;99453.75;7775899;22;20210;-69
2024/02/22 05:19:46;;;;;;;3.30;2.23;;;;;;;8.29;100.00;99441.44;7779691;22;20298;-70
2024/02/22 05:23:07;;;;;;;2.87;2.67;;;;;;;8.29;100.00;99437.91;7777950;22;20212;-70
2024/02/22 05:26:28;;;;;;;2.97;2.70;;;;;;;8.29;100.00;99435.22;7772728;22;20214;-70
2024/02/22 05:29:50;;;;;;;2.10;2.00;;;;;;;8.22;100.00;99428.78;7779694;22;20617;-69
2024/02/22 05:33:11;;;;;;;2.40;2.20;;;;;;;8.27;100.00;99421.97;7772831;22;20210;-70
2024/02/22 05:36:32;;;;;;;2.43;2.27;;;;;;;8.24;100.00;99427.59;7775844;22;20297;-69
2024/02/22 05:39:55;;;;;;;2.10;2.00;;;;;;;8.25;100.00;99423.06;7779002;22;20306;-69
2024/02/22 05:43:16;;;;;;;1.77;1.67;;;;;;;8.28;100.00;99414.75;7777451;22;20203;-69
2024/02/22 05:46:38;;;;;;;2.10;2.00;;;;;;;8.32;100.00;99418.81;7774308;22;20214;-68
2024/02/22 05:49:59;;;;;;;1.60;1.50;;;;;;;8.27;100.00;99407.69;7777739;22;20210;-69
2024/02/22 05:53:20;;;;;;;2.20;2.00;;;;;;;8.30;100.00;99405.56;7755817;22;20214;-69
2024/02/22 05:56:41;;;;;;;2.47;2.27;;;;;;;8.41;100.00;99396.34;7774455;22;20252;-69
2024/02/22 06:00:01;;;;;;;2.40;2.20;;;;;;;8.40;100.00;99400.91;7779622;22;20214;-68
2024/02/22 06:03:24;;;;;;;2.37;2.17;;;;;;;8.32;100.00;99394.66;7759524;22;20229;-69
2024/02/22 06:06:45;;;;;;;2.07;1.93;;;;;;;8.42;100.00;99385.47;7771193;22;20222;-70
2024/02/22 06:10:09;;;;;;;1.80;1.70;;;;;;;8.41;100.00;99378.41;7776473;22;20214;-70
2024/02/22 06:13:30;;;;;;;2.23;2.10;;;;;;;8.40;100.00;99371.38;7776618;22;20210;-70
2024/02/22 06:16:52;;;;;;;4.50;2.73;;;;;;;8.39;100.00;99368.81;7772559;22;20218;-70
2024/02/22 06:20:15;;;;;;;2.13;2.00;;;;;;;8.39;100.00;99358.09;7772871;22;20285;-70
2024/02/22 06:23:36;;;;;;;2.93;2.73;;;;;;;8.49;100.00;99356.16;7779064;22;20214;-69
2024/02/22 06:26:57;;;;;;;2.00;1.80;;;;;;;8.46;100.00;99362.69;7772695;22;20560;-67
2024/02/22 06:30:18;;;;;;;2.00;1.90;;;;;;;8.47;100.00;99352.78;7773997;22;20210;-68
2024/02/22 06:33:39;;;;;;;3.03;2.83;;;;;;;8.47;100.00;99350.09;7775906;22;20214;-68
2024/02/22 06:37:01;;;;;;;3.03;2.83;;;;;;;8.50;100.00;99344.38;7756609;22;20524;-68
2024/02/22 06:40:22;;;;;;;2.33;2.23;;;;;;;8.50;100.00;99349.75;7771203;22;21039;-67
2024/02/22 06:43:44;;;;;;;2.93;2.67;;;;;;;8.52;100.00;99347.75;7776877;22;20218;-66
2024/02/22 06:47:05;;;;;;;1.80;1.70;;;;;;;8.54;100.00;99337.69;7767168;22;20210;-66
2024/02/22 06:50:25;;;;;;;2.20;2.00;;;;;;;8.52;100.00;99334.31;7769152;22;20211;-66
2024/02/22 06:53:48;;;;;;;2.63;2.27;;;;;;;8.49;100.00;99334.66;7778062;22;20589;-65
2024/02/22 06:57:09;;;;;;;2.80;2.53;;;;;;;8.55;100.00;99334.84;7760028;22;20202;-66
2024/02/22 07:00:32;;;;;;;2.00;1.90;;;;;;;8.57;100.00;99342.75;7769881;22;20214;-66
2024/02/22 07:03:53;;;;;;;2.00;1.90;;;;;;;8.55;100.00;99336.72;7772274;22;20293;-68
2024/02/22 07:07:15;;;;;;;2.60;2.40;;;;;;;8.56;100.00;99333.00;7767075;22;20210;-68
2024/02/22 07:10:38;;;;;;;2.00;1.90;;;;;;;8.62;100.00;99333.19;7769090;22;20623;-68
2024/02/22 07:13:59;;;;;;;3.60;2.47;;;;;;;8.58;100.00;99331.84;7775589;22;20210;-68
2024/02/22 07:17:20;;;;;;;3.30;3.00;;;;;;;8.62;100.00;99318.91;7763533;22;20219;-68
2024/02/22 07:20:41;;;;;;;3.03;2.80;;;;;;;8.71;100.00;99323.34;7770472;22;20207;-68
2024/02/22 07:24:03;;;;;;;2.57;2.37;;;;;;;8.81;100.00;99311.44;7773188;22;20234;-67
2024/02/22 07:27:25;;;;;;;3.43;2.63;;;;;;;8.70;100.00;99310.88;7771755;22;20202;-68
2024/02/22 07:30:47;;;;;;;2.47;2.27;;;;;;;8.65;100.00;99311.41;7772906;22;20218;-68
2024/02/22 07:34:08;;;;;;;3.10;2.90;;;;;;;8.68;100.00;99311.06;7775156;22;20215;-69
2024/02/22 07:37:29;;;;;;;3.60;3.30;;;;;;;8.71;100.00;99308.06;7775394;22;20210;-68
2024/02/22 07:40:50;;;;;;;3.57;3.20;;;;;;;8.66;100.00;99306.84;7775404;22;20206;-67
2024/02/22 07:44:12;;;;;;;3.10;2.90;;;;;;;8.76;100.00;99308.41;7777950;22;20218;-67
2024/02/22 07:47:33;;;;;;;5.53;3.73;;;;;;;8.76;100.00;99305.72;7771872;22;20214;-67
2024/02/22 07:50:54;;;;;;;4.23;3.83;;;;;;;8.75;100.00;99305.88;7772264;22;20836;-66
2024/02/22 07:54:16;;;;;;;4.13;3.70;;;;;;;8.74;100.00;99296.97;7773715;22;20234;-68
2024/02/22 07:57:37;;;;;;;4.73;4.33;;;;;;;8.70;100.00;99303.69;7771605;22;20214;-69
2024/02/22 08:00:59;;;;;;;4.17;3.87;;;;;;;8.71;100.00;99302.69;7772154;22;20202;-68
2024/02/22 08:04:20;;;;;;;5.13;4.07;;;;;;;8.73;100.00;99299.81;7772918;22;20290;-67
2024/02/22 08:07:41;;;;;;;5.43;4.73;;;;;;;8.77;100.00;99295.81;7770383;22;20467;-68
2024/02/22 08:11:02;;;;;;;5.27;3.97;;;;;;;8.75;100.00;99295.13;7773540;22;20210;-68
2024/02/22 08:14:23;;;;;;;3.77;3.47;;;;;;;8.86;100.00;99292.16;7757361;22;20223;-68
2024/02/22 08:17:46;;;;;;;4.10;3.80;;;;;;;8.94;100.00;99289.47;7771258;22;20222;-68
2024/02/22 08:21:08;;;;;;;5.77;4.40;;;;;;;9.07;100.00;99280.94;7770725;22;20214;-67
2024/02/22 08:24:28;;;;;;;4.47;3.97;;;;;;;9.06;100.00;99276.56;7777059;22;20202;-68
2024/02/22 08:27:54;;;;;;;5.07;4.57;;;;;;;9.05;100.00;99274.88;7774233;22;20218;-68
2024/02/22 08:31:15;;;;;;;5.43;4.93;;;;;;;9.09;100.00;99269.03;7771200;22;20206;-67
2024/02/22 08:34:37;;;;;;;7.23;4.60;;;;;;;9.08;100.00;99266.47;7777548;22;20210;-68
2024/02/22 08:37:59;;;;;;;18.40;4.83;;;;;;;9.17;100.00;99260.09;7772364;22;20450;-67
2024/02/22 08:41:22;;;;;;;7.73;5.23;;;;;;;9.31;100.00;99262.97;7771342;22;20294;-68
2024/02/22 08:44:43;;;;;;;4.53;4.00;;;;;;;9.18;100.00;99278.75;7781142;22;20210;-68
2024/02/22 08:48:05;;;;;;;5.00;4.53;;;;;;;9.20;100.00;99274.03;7772613;22;20210;-68
2024/02/22 08:51:27;;;;;;;5.63;4.87;;;;;;;9.20;100.00;99279.44;7772120;22;20210;-68
2024/02/22 08:54:48;;;;;;;4.97;4.57;;;;;;;9.15;100.00;99259.44;7772198;22;20214;-68
2024/02/22 08:58:09;;;;;;;5.97;5.30;;;;;;;9.20;100.00;99257.09;7775001;22;20214;-68
2024/02/22 09:01:34;;;;;;;5.10;3.97;;;;;;;9.20;100.00;99265.16;7772875;22;20210;-66
2024/02/22 09:04:55;;;;;;;5.17;4.70;;;;;;;9.23;100.00;99256.75;7777666;22;20206;-67
2024/02/22 09:08:17;;;;;;;6.70;6.20;;;;;;;9.31;100.00;99237.94;7774886;22;20234;-67
2024/02/22 09:11:38;;;;;;;5.30;4.80;;;;;;;9.33;100.00;99239.44;7773918;22;20417;-68
2024/02/22 09:14:59;;;;;;;4.60;4.20;;;;;;;9.35;100.00;99232.03;7778047;22;20206;-68
2024/02/22 09:18:20;;;;;;;7.73;5.30;;;;;;;9.39;100.00;99240.59;7774414;22;20624;-68
2024/02/22 09:21:41;;;;;;;5.40;4.93;;;;;;;9.50;100.00;99234.91;7772529;22;20451;-67
2024/02/22 09:25:07;;;;;;;5.47;4.57;;;;;;;9.52;100.00;99232.88;7756872;22;20203;-66
2024/02/22 09:28:28;;;;;;;6.30;5.67;;;;;;;9.49;100.00;99233.22;7776720;22;20203;-67
2024/02/22 09:31:49;;;;;;;4.90;4.40;;;;;;;9.44;100.00;99227.50;7768364;22;20219;-67
2024/02/22 09:35:10;;;;;;;4.10;3.80;;;;;;;9.45;100.00;99234.59;7774786;22;20293;-68
2024/02/22 09:38:34;;;;;;;6.03;5.43;;;;;;;9.54;100.00;99225.47;7776969;22;20628;-67
2024/02/22 09:41:56;;;;;;;5.37;4.80;;;;;;;9.62;100.00;99222.75;7772529;22;20202;-67
2024/02/22 09:45:17;;;;;;;4.70;4.30;;;;;;;9.63;100.00;99217.25;7774789;22;20215;-67
2024/02/22 09:48:39;;;;;;;4.20;3.87;;;;;;;9.70;100.00;99197.72;7775977;22;20226;-67
2024/02/22 09:52:00;;;;;;;4.70;4.30;;;;;;;9.93;100.00;99183.31;7758925;22;20588;-67
2024/02/22 09:55:21;;;;;;;4.93;4.50;;;;;;;9.93;100.00;99172.56;7773026;22;20214;-67
2024/02/22 09:58:47;;;;;;;4.33;3.90;;;;;;;10.08;100.00;99173.50;7774645;22;20218;-67
2024/02/22 10:02:11;;;;;;;4.50;4.17;;;;;;;10.17;100.00;99175.22;7770984;22;20210;-67
2024/02/22 10:05:36;;;;;;;4.70;3.80;;;;;;;10.17;100.00;99174.34;7777277;22;20225;-66
2024/02/22 10:08:58;;;;;;;3.80;3.50;;;;;;;10.04;100.00;99174.03;7779421;22;20454;-67
2024/02/22 10:12:25;;;;;;;3.93;3.30;;;;;;;10.04;100.00;99163.28;7760919;22;20218;-66
2024/02/22 10:15:47;;;;;;;3.00;2.70;;;;;;;10.09;100.00;99145.59;7775692;22;20591;-66
2024/02/22 10:19:12;;;;;;;3.43;3.13;;;;;;;10.23;100.00;99123.34;7770601;22;20206;-67
2024/02/22 10:22:34;;;;;;;3.50;3.20;;;;;;;10.53;100.00;99126.19;7777889;22;20219;-67
2024/02/22 10:26:02;;;;;;;3.30;2.70;;;;;;;10.42;100.00;99120.19;7777780;22;20206;-67
2024/02/22 10:29:24;;;;;;;3.20;3.00;;;;;;;10.43;100.00;99137.16;7780642;22;20217;-68
2024/02/22 10:32:47;;;;;;;2.93;2.67;;;;;;;10.40;100.00;99159.09;7772277;22;20222;-66
2024/02/22 10:36:09;;;;;;;2.83;2.47;;;;;;;10.45;100.00;99156.72;7775232;22;20605;-67
2024/02/22 10:39:34;;;;;;;2.77;2.57;;;;;;;10.40;100.00;99138.38;7780527;22;20298;-67
2024/02/22 10:42:56;;;;;;;2.83;2.50;;;;;;;10.45;100.00;99151.34;7776590;22;20214;-66
2024/02/22 10:46:18;;;;;;;2.63;2.43;;;;;;;10.49;100.00;99147.25;7773574;22;20438;-67
2024/02/22 10:49:44;;;;;;;2.60;2.40;;;;;;;10.45;100.00;99146.75;7774232;22;20215;-66
2024/02/22 10:53:08;;;;;;;3.93;3.10;;;;;;;10.43;100.00;99131.78;7776723;22;20210;-67
2024/02/22 10:56:32;;;;;;;2.60;2.40;;;;;;;10.49;100.00;99119.47;7774194;22;20556;-68
2024/02/22 10:59:56;;;;;;;3.40;3.10;;;;;;;10.39;100.00;99122.38;7780489;22;20215;-68
2024/02/22 11:03:21;;;;;;;3.60;3.00;;;;;;;10.31;100.00;99107.13;7775727;22;20256;-67
2024/02/22 11:06:44;;;;;;;3.97;3.67;;;;;;;10.28;100.00;99099.38;7776560;22;20210;-66
2024/02/22 11:10:06;;;;;;;3.63;3.33;;;;;;;10.29;100.00;99084.06;7760286;22;20211;-66
2024/02/22 11:13:28;;;;;;;5.13;4.67;;;;;;;10.40;100.00;99072.88;7777990;22;20210;-66
2024/02/22 11:16:49;;;;;;;6.77;5.47;;;;;;;10.30;100.00;99061.53;7771613;22;20218;-67
2024/02/22 11:20:10;;;;;;;5.63;4.50;;;;;;;10.38;100.00;99065.00;7764128;22;20210;-68
2024/02/22 11:23:34;;;;;;;6.73;6.00;;;;;;;10.37;100.00;99066.00;7778666;22;20202;-67
2024/02/22 11:26:57;;;;;;;6.83;5.37;;;;;;;10.44;100.00;99068.81;7774338;22;20364;-67
2024/02/22 11:30:22;;;;;;;5.93;5.07;;;;;;;10.50;100.00;99046.53;7775821;22;20265;-66
2024/02/22 11:33:44;;;;;;;9.03;5.67;;;;;;;10.50;100.00;99038.47;7777253;22;20222;-67
2024/02/22 11:37:10;;;;;;;5.57;4.43;;;;;;;10.38;100.00;99032.69;7773230;22;20436;-66
2024/02/22 11:40:34;;;;;;;7.60;4.70;;;;;;;10.35;100.00;99022.25;7777758;22;20295;-67
2024/02/22 11:44:03;;;;;;;7.33;5.90;;;;;;;10.43;100.00;99006.03;7779136;22;20574;-68
2024/02/22 11:47:23;;;;;;;6.00;5.40;;;;;;;10.59;100.00;98990.75;7768855;22;20309;-67
2024/02/22 11:50:44;;;;;;;6.27;5.67;;;;;;;10.51;100.00;98988.13;7772763;22;20547;-67
2024/02/22 11:54:05;;;;;;;7.00;6.33;;;;;;;10.54;100.00;98993.97;7776468;22;20198;-67
2024/02/22 11:57:28;;;;;;;7.00;5.93;;;;;;;10.65;100.00;98977.38;7774879;22;20229;-68
2024/02/22 12:00:49;;;;;;;7.90;6.23;;;;;;;10.93;100.00;98967.63;7775007;22;20569;-67
2024/02/22 12:04:11;;;;;;;7.17;6.53;;;;;;;11.20;100.00;98960.78;7777051;22;20222;-68
2024/02/22 12:07:33;;;;;;;7.80;6.80;;;;;;;12.31;100.00;98955.78;7774201;22;20272;-67
2024/02/22 12:10:54;;;;;;;11.60;6.23;;;;;;;14.31;100.00;98945.41;7773866;22;20210;-67
2024/02/22 12:14:16;;;;;;;6.27;5.70;;;;;;;16.33;100.00;98934.16;7778460;22;20206;-67
2024/02/22 12:17:38;;;;;;;6.97;5.40;;;;;;;15.13;100.00;98913.19;7770058;22;20215;-67
2024/02/22 12:20:59;;;;;;;5.63;4.17;;;;;;;15.75;100.00;98906.31;7771865;22;20203;-67
2024/02/22 12:24:20;;;;;;;5.10;4.60;;;;;;;17.76;100.00;98901.88;7772887;22;20211;-67
2024/02/22 12:27:41;;;;;;;5.57;5.03;;;;;;;15.86;100.00;98881.97;7760350;22;20214;-67
2024/02/22 12:31:05;;;;;;;5.68;4.72;;;;;;;18.00;100.00;98865.44;7772918;22;20593;-67
2024/02/22 12:34:26;;;;;;;7.50;3.90;;;;;;;14.96;100.00;98846.88;7744626;22;20218;-66
2024/02/22 12:37:48;;;;;;;4.88;3.90;;;;;;;15.57;100.00;98849.13;7773164;22;20210;-67
2024/02/22 12:41:09;;;;;;;8.93;4.97;;;;;;;17.22;100.00;98839.28;7773141;22;20286;-66
2024/02/22 12:44:29;;;;;;;4.53;4.10;;;;;;;14.12;100.00;98842.41;7780064;22;20244;-67
2024/02/22 12:47:52;;;;;;;9.23;4.50;;;;;;;14.10;100.00;98850.72;7772267;22;21105;-66
2024/02/22 12:51:13;;;;;;;6.60;4.20;;;;;;;13.66;100.00;98844.22;7774102;22;20222;-66
2024/02/22 12:54:35;;;;;;;8.70;5.70;;;;;;;13.01;100.00;98832.13;7777455;22;20206;-66
2024/02/22 12:57:56;;;;;;;8.50;4.87;;;;;;;14.12;100.00;98820.72;7773350;22;20210;-67
2024/02/22 13:01:20;;;;;;;4.70;4.23;;;;;;;16.04;100.00;98816.00;7771179;22;20647;-68
2024/02/22 13:04:42;;;;;;;6.30;5.60;;;;;;;15.56;100.00;98818.41;7760541;22;20261;-66
2024/02/22 13:08:03;;;;;;;8.70;5.73;;;;;;;14.07;100.00;98817.78;7773537;22;20210;-67
2024/02/22 13:11:24;;;;;;;8.37;5.63;;;;;;;13.16;100.00;98819.31;7771989;22;20305;-67
2024/02/22 13:14:45;;;;;;;6.40;4.77;;;;;;;12.32;100.00;98825.94;7776535;22;20226;-67
2024/02/22 13:18:07;;;;;;;7.40;6.57;;;;;;;12.40;100.00;98806.84;7774839;22;20206;-67
2024/02/22 13:21:29;;;;;;;7.97;4.93;;;;;;;12.47;100.00;98804.19;7774792;22;20586;-68
2024/02/22 13:24:50;;;;;;;6.33;5.70;;;;;;;12.33;100.00;98810.56;7779188;22;20218;-68
2024/02/22 13:28:11;;;;;;;5.80;5.20;;;;;;;12.29;100.00;98793.91;7775686;22;20218;-68
2024/02/22 13:31:32;;;;;;;9.20;6.37;;;;;;;11.94;100.00;98794.88;7774590;22;20218;-66
2024/02/22 13:34:53;;;;;;;6.20;5.60;;;;;;;12.06;100.00;98797.91;7780332;22;20486;-67
2024/02/22 13:38:17;;;;;;;6.00;5.50;;;;;;;11.93;100.00;98796.75;7778214;22;20268;-68
2024/02/22 13:41:38;;;;;;;6.20;5.60;;;;;;;11.78;100.00;98798.72;7735561;22;20568;-67
2024/02/22 13:44:59;;;;;;;7.97;6.33;;;;;;;11.65;100.00;98779.69;7778060;22;20246;-68
2024/02/22 13:48:20;;;;;;;7.70;6.53;;;;;;;11.85;100.00;98775.28;7772917;22;20230;-67
2024/02/22 13:51:41;;;;;;;6.90;6.20;;;;;;;11.93;100.00;98758.94;7773299;22;20223;-67
2024/02/22 13:55:07;;;;;;;8.50;6.37;;;;;;;12.06;100.00;98760.09;7777521;22;20244;-67
2024/02/22 13:58:32;;;;;;;6.40;5.80;;;;;;;11.99;100.00;98744.66;7775263;22;20207;-66
2024/02/22 14:01:53;;;;;;;5.80;5.20;;;;;;;11.72;100.00;98752.78;7756930;22;20215;-67
2024/02/22 14:05:14;;;;;;;7.93;5.83;;;;;;;11.79;100.00;98730.19;7771611;22;20249;-67
2024/02/22 14:08:35;;;;;;;7.97;5.90;;;;;;;11.94;100.00;98713.88;7777801;22;20230;-67
2024/02/22 14:11:58;;;;;;;8.57;6.67;;;;;;;12.07;100.00;98699.63;7773899;22;20214;-68
2024/02/22 14:15:20;;;;;;;8.30;5.67;;;;;;;12.00;100.00;98689.63;7776935;22;20214;-65
2024/02/22 14:18:40;;;;;;;5.57;5.00;;;;;;;12.18;100.00;98681.00;7780016;22;20310;-66
2024/02/22 14:22:01;;;;;;;7.07;5.60;;;;;;;12.42;100.00;98660.72;7778261;22;20211;-67
2024/02/22 14:25:22;;;;;;;5.80;5.10;;;;;;;12.17;100.00;98659.59;7777603;22;20285;-66
2024/02/22 14:28:44;;;;;;;4.37;3.87;;;;;;;12.10;100.00;98661.44;7774145;22;20641;-66
2024/02/22 14:32:06;;;;;;;7.57;5.00;;;;;;;12.08;100.00;98655.41;7770648;22;20277;-67
2024/02/22 14:35:28;;;;;;;5.17;4.77;;;;;;;11.92;100.00;98643.06;7776012;22;20211;-68
2024/02/22 14:38:49;;;;;;;11.83;5.47;;;;;;;11.87;100.00;98626.59;7777259;22;20218;-65
2024/02/22 14:42:16;;;;;;;4.00;3.60;;;;;;;12.10;100.00;98618.22;7772009;22;20210;-64
2024/02/22 14:45:38;;;;;;;4.80;4.30;;;;;;;13.54;100.00;98612.00;7771132;22;20222;-64
2024/02/22 14:48:59;;;;;;;3.63;3.20;;;;;;;13.30;100.00;98598.28;7779367;22;20206;-65
2024/02/22 14:52:21;;;;;;;6.50;3.77;;;;;;;15.19;100.00;98577.63;7773477;22;20214;-66
2024/02/22 14:55:41;;;;;;;3.20;2.90;;;;;;;14.29;100.00;98559.91;7774173;22;20219;-67
2024/02/22 14:59:02;;;;;;;3.03;2.80;;;;;;;13.68;100.00;98549.72;7776030;22;20214;-68
2024/02/22 15:02:25;;;;;;;3.10;2.83;;;;;;;13.13;100.00;98527.56;7768981;22;20561;-68
2024/02/22 15:05:46;;;;;;;3.23;2.93;;;;;;;12.68;100.00;98507.56;7769846;22;20565;-68
2024/02/22 15:09:11;;;;;;;2.80;2.60;;;;;;;12.48;100.00;98495.91;7773985;22;20207;-67
2024/02/22 15:12:33;;;;;;;4.33;2.97;;;;;;;12.24;100.00;98482.16;7747215;22;20205;-67
2024/02/22 15:15:53;;;;;;;5.70;3.10;;;;;;;12.27;100.00;98463.66;7774150;22;20214;-68
2024/02/22 15:19:16;;;;;;;4.53;2.90;;;;;;;12.19;100.00;98446.81;7775457;22;20210;-67
2024/02/22 15:22:37;;;;;;;3.53;2.53;;;;;;;12.07;100.00;98438.50;7772259;22;20211;-68
2024/02/22 15:25:58;;;;;;;3.37;2.70;;;;;;;12.09;100.00;98408.59;7777225;22;20206;-66
2024/02/22 15:29:18;;;;;;;3.50;3.20;;;;;;;12.19;100.00;98411.72;7776438;22;20210;-67
2024/02/22 15:32:39;;;;;;;2.50;2.30;;;;;;;12.06;100.00;98392.81;7771287;22;20263;-67
2024/02/22 15:36:02;;;;;;;2.53;2.33;;;;;;;12.29;100.00;98390.50;7769089;22;20214;-68
2024/02/22 15:39:23;;;;;;;4.90;2.70;;;;;;;12.29;100.00;98380.56;7778449;22;20218;-66
2024/02/22 15:42:44;;;;;;;3.17;2.67;;;;;;;12.25;100.00;98375.75;7769474;22;20219;-68